Clarcona, Florida
Current Conditions -  °F | °C
As of 9:53 AM on Thursday 18 Dec 2014 (Local Time) from KORL Reporting Station
Clear Clear  
Wind Chill: 59°   Ceiling: Unl
Heat Index: 59°   Visibility: 10mi
Dew Point: 46°   Wind: 0mph
Humidity: 62%   Direction: NA
Pressure: 30.19"   Gusts: NA
Location:  28.61°N, 81.5°W
Report Text: KORL 181453Z 00000KT 10SM CLR 15/08 A3019 RMK AO2 SLP227 T01500078 51015
Loading
Personal Weather Stations






























Interactive Weather Map New forecast layout! Learn more

10-Day Weather Forecast

Advertisements
Track Severe Weather on mobile